sensor_id;sensor_type;location;lat;lon;timestamp;P1;durP1;ratioP1;P2;durP2;ratioP2
11927;SDS011;6023;47.070;15.126;2022-10-16T00:01:17;29.13;;;24.97;;
11927;SDS011;6023;47.070;15.126;2022-10-16T00:03:47;29.67;;;25.67;;
11927;SDS011;6023;47.070;15.126;2022-10-16T00:06:18;27.27;;;23.53;;
11927;SDS011;6023;47.070;15.126;2022-10-16T00:08:47;30.53;;;25.83;;
11927;SDS011;6023;47.070;15.126;2022-10-16T00:11:17;31.10;;;27.30;;
11927;SDS011;6023;47.070;15.126;2022-10-16T00:13:47;26.83;;;23.70;;
11927;SDS011;6023;47.070;15.126;2022-10-16T00:16:16;29.00;;;23.30;;
11927;SDS011;6023;47.070;15.126;2022-10-16T00:18:45;27.60;;;22.97;;
11927;SDS011;6023;47.070;15.126;2022-10-16T00:21:15;26.70;;;23.07;;
11927;SDS011;6023;47.070;15.126;2022-10-16T00:23:46;23.87;;;20.43;;
11927;SDS011;6023;47.070;15.126;2022-10-16T00:26:15;23.27;;;20.57;;
11927;SDS011;6023;47.070;15.126;2022-10-16T00:28:45;27.37;;;21.17;;
11927;SDS011;6023;47.070;15.126;2022-10-16T00:31:14;24.07;;;19.27;;
11927;SDS011;6023;47.070;15.126;2022-10-16T00:33:42;25.43;;;20.80;;
11927;SDS011;6023;47.070;15.126;2022-10-16T00:36:12;25.93;;;21.80;;
11927;SDS011;6023;47.070;15.126;2022-10-16T00:38:41;23.60;;;19.20;;
11927;SDS011;6023;47.070;15.126;2022-10-16T00:41:12;25.67;;;20.97;;
11927;SDS011;6023;47.070;15.126;2022-10-16T00:43:46;23.73;;;19.93;;
11927;SDS011;6023;47.070;15.126;2022-10-16T00:46:16;24.47;;;20.43;;
11927;SDS011;6023;47.070;15.126;2022-10-16T00:48:48;22.67;;;19.70;;
11927;SDS011;6023;47.070;15.126;2022-10-16T00:51:18;24.67;;;19.87;;
11927;SDS011;6023;47.070;15.126;2022-10-16T00:53:49;24.37;;;20.23;;
11927;SDS011;6023;47.070;15.126;2022-10-16T00:56:19;22.00;;;18.67;;
11927;SDS011;6023;47.070;15.126;2022-10-16T00:58:48;24.30;;;19.37;;
11927;SDS011;6023;47.070;15.126;2022-10-16T01:01:16;23.10;;;19.37;;
11927;SDS011;6023;47.070;15.126;2022-10-16T01:03:45;21.90;;;19.33;;
11927;SDS011;6023;47.070;15.126;2022-10-16T01:06:23;25.50;;;19.43;;
11927;SDS011;6023;47.070;15.126;2022-10-16T01:08:57;23.63;;;18.80;;
11927;SDS011;6023;47.070;15.126;2022-10-16T01:11:52;24.33;;;19.00;;
11927;SDS011;6023;47.070;15.126;2022-10-16T01:14:26;22.33;;;18.03;;
11927;SDS011;6023;47.070;15.126;2022-10-16T01:17:01;23.40;;;18.97;;
11927;SDS011;6023;47.070;15.126;2022-10-16T01:19:38;22.27;;;18.87;;
11927;SDS011;6023;47.070;15.126;2022-10-16T01:22:18;23.23;;;18.53;;
11927;SDS011;6023;47.070;15.126;2022-10-16T01:24:48;20.47;;;17.03;;
11927;SDS011;6023;47.070;15.126;2022-10-16T01:27:19;22.83;;;17.87;;
11927;SDS011;6023;47.070;15.126;2022-10-16T01:29:52;21.53;;;16.43;;
11927;SDS011;6023;47.070;15.126;2022-10-16T01:32:23;22.00;;;17.97;;
11927;SDS011;6023;47.070;15.126;2022-10-16T01:34:58;22.63;;;17.30;;
11927;SDS011;6023;47.070;15.126;2022-10-16T01:37:31;19.37;;;17.13;;
11927;SDS011;6023;47.070;15.126;2022-10-16T01:40:02;19.60;;;16.80;;
11927;SDS011;6023;47.070;15.126;2022-10-16T01:42:36;22.77;;;17.53;;
11927;SDS011;6023;47.070;15.126;2022-10-16T01:45:07;17.87;;;15.40;;
11927;SDS011;6023;47.070;15.126;2022-10-16T01:47:38;19.00;;;16.70;;
11927;SDS011;6023;47.070;15.126;2022-10-16T01:50:07;20.13;;;16.77;;
11927;SDS011;6023;47.070;15.126;2022-10-16T01:52:37;21.87;;;17.07;;
11927;SDS011;6023;47.070;15.126;2022-10-16T01:55:08;23.77;;;17.60;;
11927;SDS011;6023;47.070;15.126;2022-10-16T01:57:41;21.17;;;18.03;;
11927;SDS011;6023;47.070;15.126;2022-10-16T02:00:12;20.20;;;16.93;;
11927;SDS011;6023;47.070;15.126;2022-10-16T02:02:42;19.43;;;16.13;;
11927;SDS011;6023;47.070;15.126;2022-10-16T02:05:15;18.67;;;15.47;;
11927;SDS011;6023;47.070;15.126;2022-10-16T02:07:46;22.30;;;16.83;;
11927;SDS011;6023;47.070;15.126;2022-10-16T02:10:15;21.77;;;16.93;;
11927;SDS011;6023;47.070;15.126;2022-10-16T02:12:46;18.27;;;16.13;;
11927;SDS011;6023;47.070;15.126;2022-10-16T02:15:17;19.30;;;16.13;;
11927;SDS011;6023;47.070;15.126;2022-10-16T02:17:46;19.00;;;15.97;;
11927;SDS011;6023;47.070;15.126;2022-10-16T02:20:14;22.83;;;16.47;;
11927;SDS011;6023;47.070;15.126;2022-10-16T02:22:43;21.47;;;16.17;;
11927;SDS011;6023;47.070;15.126;2022-10-16T02:25:15;18.90;;;15.50;;
11927;SDS011;6023;47.070;15.126;2022-10-16T02:27:49;20.33;;;15.53;;
11927;SDS011;6023;47.070;15.126;2022-10-16T02:30:23;21.40;;;17.17;;
11927;SDS011;6023;47.070;15.126;2022-10-16T02:32:54;20.10;;;17.60;;
11927;SDS011;6023;47.070;15.126;2022-10-16T02:35:23;21.27;;;18.50;;
11927;SDS011;6023;47.070;15.126;2022-10-16T02:37:53;19.90;;;17.37;;
11927;SDS011;6023;47.070;15.126;2022-10-16T02:40:22;19.20;;;17.10;;
11927;SDS011;6023;47.070;15.126;2022-10-16T02:42:54;19.30;;;16.00;;
11927;SDS011;6023;47.070;15.126;2022-10-16T02:45:23;19.53;;;16.47;;
11927;SDS011;6023;47.070;15.126;2022-10-16T02:47:52;18.07;;;15.97;;
11927;SDS011;6023;47.070;15.126;2022-10-16T02:50:20;19.07;;;15.97;;
11927;SDS011;6023;47.070;15.126;2022-10-16T02:52:49;17.37;;;15.27;;
11927;SDS011;6023;47.070;15.126;2022-10-16T02:55:17;19.97;;;16.80;;
11927;SDS011;6023;47.070;15.126;2022-10-16T02:57:45;16.70;;;14.90;;
11927;SDS011;6023;47.070;15.126;2022-10-16T03:00:16;16.97;;;14.30;;
11927;SDS011;6023;47.070;15.126;2022-10-16T03:02:45;18.67;;;15.00;;
11927;SDS011;6023;47.070;15.126;2022-10-16T03:05:14;18.17;;;14.87;;
11927;SDS011;6023;47.070;15.126;2022-10-16T03:07:42;18.87;;;15.47;;
11927;SDS011;6023;47.070;15.126;2022-10-16T03:10:11;18.93;;;15.10;;
11927;SDS011;6023;47.070;15.126;2022-10-16T03:12:39;16.83;;;14.50;;
11927;SDS011;6023;47.070;15.126;2022-10-16T03:15:08;16.30;;;13.67;;
11927;SDS011;6023;47.070;15.126;2022-10-16T03:17:38;17.00;;;12.93;;
11927;SDS011;6023;47.070;15.126;2022-10-16T03:20:07;16.73;;;13.37;;
11927;SDS011;6023;47.070;15.126;2022-10-16T03:22:36;18.97;;;13.33;;
11927;SDS011;6023;47.070;15.126;2022-10-16T03:25:04;16.27;;;12.43;;
11927;SDS011;6023;47.070;15.126;2022-10-16T03:27:33;15.37;;;12.90;;
11927;SDS011;6023;47.070;15.126;2022-10-16T03:30:02;16.07;;;12.77;;
11927;SDS011;6023;47.070;15.126;2022-10-16T03:32:31;14.30;;;12.00;;
11927;SDS011;6023;47.070;15.126;2022-10-16T03:35:04;15.47;;;11.97;;
11927;SDS011;6023;47.070;15.126;2022-10-16T03:37:33;14.70;;;11.93;;
11927;SDS011;6023;47.070;15.126;2022-10-16T03:40:02;14.87;;;11.67;;
11927;SDS011;6023;47.070;15.126;2022-10-16T03:42:34;15.37;;;11.80;;
11927;SDS011;6023;47.070;15.126;2022-10-16T03:45:03;15.37;;;12.00;;
11927;SDS011;6023;47.070;15.126;2022-10-16T03:47:32;14.60;;;12.10;;
11927;SDS011;6023;47.070;15.126;2022-10-16T03:50:01;15.50;;;11.43;;
11927;SDS011;6023;47.070;15.126;2022-10-16T03:52:31;15.13;;;11.13;;
11927;SDS011;6023;47.070;15.126;2022-10-16T03:54:59;13.87;;;11.17;;
11927;SDS011;6023;47.070;15.126;2022-10-16T03:57:28;17.47;;;13.07;;
11927;SDS011;6023;47.070;15.126;2022-10-16T03:59:56;15.40;;;12.70;;
11927;SDS011;6023;47.070;15.126;2022-10-16T04:02:25;14.60;;;12.13;;
11927;SDS011;6023;47.070;15.126;2022-10-16T04:04:53;15.73;;;12.70;;
11927;SDS011;6023;47.070;15.126;2022-10-16T04:07:22;13.57;;;11.00;;
11927;SDS011;6023;47.070;15.126;2022-10-16T04:09:52;13.33;;;11.30;;
11927;SDS011;6023;47.070;15.126;2022-10-16T04:12:20;16.37;;;12.57;;
11927;SDS011;6023;47.070;15.126;2022-10-16T04:14:49;14.13;;;12.43;;
11927;SDS011;6023;47.070;15.126;2022-10-16T04:17:17;15.80;;;14.20;;
11927;SDS011;6023;47.070;15.126;2022-10-16T04:19:46;18.23;;;15.30;;
11927;SDS011;6023;47.070;15.126;2022-10-16T04:22:14;15.63;;;13.80;;
11927;SDS011;6023;47.070;15.126;2022-10-16T04:24:43;15.27;;;11.90;;
11927;SDS011;6023;47.070;15.126;2022-10-16T04:27:12;15.70;;;12.23;;
11927;SDS011;6023;47.070;15.126;2022-10-16T04:29:41;16.57;;;12.27;;
11927;SDS011;6023;47.070;15.126;2022-10-16T04:32:09;14.90;;;10.93;;
11927;SDS011;6023;47.070;15.126;2022-10-16T04:34:38;12.80;;;11.20;;
11927;SDS011;6023;47.070;15.126;2022-10-16T04:37:07;13.90;;;11.10;;
11927;SDS011;6023;47.070;15.126;2022-10-16T04:39:35;15.40;;;12.03;;
11927;SDS011;6023;47.070;15.126;2022-10-16T04:42:04;16.67;;;12.43;;
11927;SDS011;6023;47.070;15.126;2022-10-16T04:44:34;15.67;;;12.67;;
11927;SDS011;6023;47.070;15.126;2022-10-16T04:47:02;13.87;;;12.33;;
11927;SDS011;6023;47.070;15.126;2022-10-16T04:49:31;13.30;;;11.57;;
11927;SDS011;6023;47.070;15.126;2022-10-16T04:51:59;14.23;;;11.17;;
11927;SDS011;6023;47.070;15.126;2022-10-16T04:54:28;16.13;;;12.27;;
11927;SDS011;6023;47.070;15.126;2022-10-16T04:56:56;12.90;;;10.73;;
11927;SDS011;6023;47.070;15.126;2022-10-16T04:59:25;13.67;;;10.97;;
11927;SDS011;6023;47.070;15.126;2022-10-16T05:01:55;12.27;;;10.17;;
11927;SDS011;6023;47.070;15.126;2022-10-16T05:04:23;11.10;;;9.90;;
11927;SDS011;6023;47.070;15.126;2022-10-16T05:06:52;13.23;;;10.00;;
11927;SDS011;6023;47.070;15.126;2022-10-16T05:09:20;13.27;;;10.83;;
11927;SDS011;6023;47.070;15.126;2022-10-16T05:11:49;12.00;;;10.03;;
11927;SDS011;6023;47.070;15.126;2022-10-16T05:14:17;12.40;;;9.57;;
11927;SDS011;6023;47.070;15.126;2022-10-16T05:16:46;13.17;;;10.17;;
11927;SDS011;6023;47.070;15.126;2022-10-16T05:19:16;14.53;;;10.80;;
11927;SDS011;6023;47.070;15.126;2022-10-16T05:21:54;12.77;;;10.10;;
11927;SDS011;6023;47.070;15.126;2022-10-16T05:24:22;10.70;;;9.60;;
11927;SDS011;6023;47.070;15.126;2022-10-16T05:26:51;11.50;;;9.67;;
11927;SDS011;6023;47.070;15.126;2022-10-16T05:29:19;10.43;;;9.33;;
11927;SDS011;6023;47.070;15.126;2022-10-16T05:31:49;10.87;;;9.07;;
11927;SDS011;6023;47.070;15.126;2022-10-16T05:34:20;10.57;;;8.90;;
11927;SDS011;6023;47.070;15.126;2022-10-16T05:36:49;10.83;;;9.50;;
11927;SDS011;6023;47.070;15.126;2022-10-16T05:39:17;11.60;;;10.40;;
11927;SDS011;6023;47.070;15.126;2022-10-16T05:41:46;12.33;;;10.57;;
11927;SDS011;6023;47.070;15.126;2022-10-16T05:44:14;10.60;;;9.50;;
11927;SDS011;6023;47.070;15.126;2022-10-16T05:46:43;13.60;;;10.60;;
11927;SDS011;6023;47.070;15.126;2022-10-16T05:49:11;11.23;;;9.90;;
11927;SDS011;6023;47.070;15.126;2022-10-16T05:51:41;13.17;;;11.13;;
11927;SDS011;6023;47.070;15.126;2022-10-16T05:54:10;15.87;;;11.47;;
11927;SDS011;6023;47.070;15.126;2022-10-16T05:56:38;14.90;;;11.47;;
11927;SDS011;6023;47.070;15.126;2022-10-16T05:59:07;11.13;;;9.93;;
11927;SDS011;6023;47.070;15.126;2022-10-16T06:01:35;11.23;;;10.13;;
11927;SDS011;6023;47.070;15.126;2022-10-16T06:04:04;11.00;;;9.50;;
11927;SDS011;6023;47.070;15.126;2022-10-16T06:06:33;11.27;;;9.57;;
11927;SDS011;6023;47.070;15.126;2022-10-16T06:09:04;11.23;;;10.03;;
11927;SDS011;6023;47.070;15.126;2022-10-16T06:11:33;12.37;;;10.33;;
11927;SDS011;6023;47.070;15.126;2022-10-16T06:14:01;10.53;;;9.23;;
11927;SDS011;6023;47.070;15.126;2022-10-16T06:16:33;12.77;;;9.53;;
11927;SDS011;6023;47.070;15.126;2022-10-16T06:19:02;13.87;;;10.53;;
11927;SDS011;6023;47.070;15.126;2022-10-16T06:21:33;12.73;;;10.73;;
11927;SDS011;6023;47.070;15.126;2022-10-16T06:24:01;16.10;;;13.67;;
11927;SDS011;6023;47.070;15.126;2022-10-16T06:26:31;22.63;;;19.33;;
11927;SDS011;6023;47.070;15.126;2022-10-16T06:29:00;14.07;;;12.40;;
11927;SDS011;6023;47.070;15.126;2022-10-16T06:31:28;14.73;;;12.37;;
11927;SDS011;6023;47.070;15.126;2022-10-16T06:34:00;33.57;;;28.50;;
11927;SDS011;6023;47.070;15.126;2022-10-16T06:36:28;26.57;;;21.67;;
11927;SDS011;6023;47.070;15.126;2022-10-16T06:38:57;24.27;;;20.97;;
11927;SDS011;6023;47.070;15.126;2022-10-16T06:41:26;28.40;;;24.60;;
11927;SDS011;6023;47.070;15.126;2022-10-16T06:43:55;16.40;;;14.03;;
11927;SDS011;6023;47.070;15.126;2022-10-16T06:46:23;12.80;;;10.07;;
11927;SDS011;6023;47.070;15.126;2022-10-16T06:48:53;14.27;;;10.70;;
11927;SDS011;6023;47.070;15.126;2022-10-16T06:51:22;13.30;;;10.00;;
11927;SDS011;6023;47.070;15.126;2022-10-16T06:53:52;11.20;;;9.40;;
11927;SDS011;6023;47.070;15.126;2022-10-16T06:56:32;15.10;;;12.37;;
11927;SDS011;6023;47.070;15.126;2022-10-16T06:59:01;11.63;;;9.50;;
11927;SDS011;6023;47.070;15.126;2022-10-16T07:01:30;15.77;;;13.17;;
11927;SDS011;6023;47.070;15.126;2022-10-16T07:03:59;18.50;;;16.10;;
11927;SDS011;6023;47.070;15.126;2022-10-16T07:06:30;16.67;;;14.07;;
11927;SDS011;6023;47.070;15.126;2022-10-16T07:09:01;12.67;;;10.60;;
11927;SDS011;6023;47.070;15.126;2022-10-16T07:11:32;12.93;;;10.13;;
11927;SDS011;6023;47.070;15.126;2022-10-16T07:14:01;12.23;;;9.93;;
11927;SDS011;6023;47.070;15.126;2022-10-16T07:16:30;11.57;;;10.37;;
11927;SDS011;6023;47.070;15.126;2022-10-16T07:19:00;11.80;;;10.40;;
11927;SDS011;6023;47.070;15.126;2022-10-16T07:21:31;14.00;;;12.50;;
11927;SDS011;6023;47.070;15.126;2022-10-16T07:24:04;13.50;;;11.87;;
11927;SDS011;6023;47.070;15.126;2022-10-16T07:26:35;13.87;;;11.17;;
11927;SDS011;6023;47.070;15.126;2022-10-16T07:29:06;13.10;;;10.43;;
11927;SDS011;6023;47.070;15.126;2022-10-16T07:31:35;13.57;;;10.77;;
11927;SDS011;6023;47.070;15.126;2022-10-16T07:34:05;11.27;;;9.90;;
11927;SDS011;6023;47.070;15.126;2022-10-16T07:36:33;10.17;;;9.00;;
11927;SDS011;6023;47.070;15.126;2022-10-16T07:39:02;13.60;;;9.73;;
11927;SDS011;6023;47.070;15.126;2022-10-16T07:41:31;11.30;;;8.97;;
11927;SDS011;6023;47.070;15.126;2022-10-16T07:44:04;11.03;;;9.43;;
11927;SDS011;6023;47.070;15.126;2022-10-16T07:46:33;11.50;;;8.97;;
11927;SDS011;6023;47.070;15.126;2022-10-16T07:49:02;12.07;;;9.20;;
11927;SDS011;6023;47.070;15.126;2022-10-16T07:51:31;11.57;;;9.97;;
11927;SDS011;6023;47.070;15.126;2022-10-16T07:53:59;9.23;;;8.33;;
11927;SDS011;6023;47.070;15.126;2022-10-16T07:56:28;10.97;;;8.40;;
11927;SDS011;6023;47.070;15.126;2022-10-16T07:58:58;9.03;;;8.13;;
11927;SDS011;6023;47.070;15.126;2022-10-16T08:01:28;10.70;;;8.63;;
11927;SDS011;6023;47.070;15.126;2022-10-16T08:03:56;13.30;;;11.43;;
11927;SDS011;6023;47.070;15.126;2022-10-16T08:06:25;14.43;;;12.90;;
11927;SDS011;6023;47.070;15.126;2022-10-16T08:08:54;15.47;;;11.70;;
11927;SDS011;6023;47.070;15.126;2022-10-16T08:11:23;12.93;;;11.20;;
11927;SDS011;6023;47.070;15.126;2022-10-16T08:13:52;43.80;;;39.17;;
11927;SDS011;6023;47.070;15.126;2022-10-16T08:16:21;21.07;;;17.10;;
11927;SDS011;6023;47.070;15.126;2022-10-16T08:18:50;17.77;;;15.97;;
11927;SDS011;6023;47.070;15.126;2022-10-16T08:21:20;27.03;;;24.13;;
11927;SDS011;6023;47.070;15.126;2022-10-16T08:23:50;14.77;;;12.47;;
11927;SDS011;6023;47.070;15.126;2022-10-16T08:26:24;10.17;;;8.27;;
11927;SDS011;6023;47.070;15.126;2022-10-16T08:28:54;9.20;;;8.17;;
11927;SDS011;6023;47.070;15.126;2022-10-16T08:31:23;16.07;;;12.87;;
11927;SDS011;6023;47.070;15.126;2022-10-16T08:33:54;11.70;;;9.47;;
11927;SDS011;6023;47.070;15.126;2022-10-16T08:36:22;9.53;;;7.80;;
11927;SDS011;6023;47.070;15.126;2022-10-16T08:38:51;13.67;;;10.43;;
11927;SDS011;6023;47.070;15.126;2022-10-16T08:41:31;9.27;;;7.70;;
11927;SDS011;6023;47.070;15.126;2022-10-16T08:44:24;9.33;;;7.20;;
11927;SDS011;6023;47.070;15.126;2022-10-16T08:47:04;10.83;;;8.00;;
11927;SDS011;6023;47.070;15.126;2022-10-16T08:49:38;12.87;;;9.67;;
11927;SDS011;6023;47.070;15.126;2022-10-16T08:52:10;9.03;;;7.83;;
11927;SDS011;6023;47.070;15.126;2022-10-16T08:54:41;9.83;;;7.67;;
11927;SDS011;6023;47.070;15.126;2022-10-16T08:57:11;8.53;;;6.90;;
11927;SDS011;6023;47.070;15.126;2022-10-16T08:59:49;8.83;;;7.13;;
11927;SDS011;6023;47.070;15.126;2022-10-16T09:02:21;7.40;;;6.47;;
11927;SDS011;6023;47.070;15.126;2022-10-16T09:04:56;7.63;;;6.13;;
11927;SDS011;6023;47.070;15.126;2022-10-16T09:07:32;7.10;;;6.30;;
11927;SDS011;6023;47.070;15.126;2022-10-16T09:10:10;7.70;;;6.13;;
11927;SDS011;6023;47.070;15.126;2022-10-16T09:12:46;7.20;;;5.60;;
11927;SDS011;6023;47.070;15.126;2022-10-16T09:15:21;9.33;;;6.00;;
11927;SDS011;6023;47.070;15.126;2022-10-16T09:17:56;8.63;;;5.97;;
11927;SDS011;6023;47.070;15.126;2022-10-16T09:20:31;7.53;;;5.97;;
11927;SDS011;6023;47.070;15.126;2022-10-16T09:23:13;9.57;;;7.70;;
11927;SDS011;6023;47.070;15.126;2022-10-16T09:25:44;13.40;;;11.97;;
11927;SDS011;6023;47.070;15.126;2022-10-16T09:28:16;8.57;;;7.07;;
11927;SDS011;6023;47.070;15.126;2022-10-16T09:30:45;7.83;;;6.37;;
11927;SDS011;6023;47.070;15.126;2022-10-16T09:33:15;10.53;;;7.20;;
11927;SDS011;6023;47.070;15.126;2022-10-16T09:35:47;15.77;;;12.73;;
11927;SDS011;6023;47.070;15.126;2022-10-16T09:38:21;8.43;;;7.37;;
11927;SDS011;6023;47.070;15.126;2022-10-16T09:40:51;8.07;;;7.27;;
11927;SDS011;6023;47.070;15.126;2022-10-16T09:43:30;9.83;;;8.27;;
11927;SDS011;6023;47.070;15.126;2022-10-16T09:46:03;9.27;;;8.27;;
11927;SDS011;6023;47.070;15.126;2022-10-16T09:48:34;9.87;;;8.00;;
11927;SDS011;6023;47.070;15.126;2022-10-16T09:51:13;8.80;;;7.90;;
11927;SDS011;6023;47.070;15.126;2022-10-16T09:53:46;9.10;;;7.90;;
11927;SDS011;6023;47.070;15.126;2022-10-16T09:56:20;9.87;;;7.73;;
11927;SDS011;6023;47.070;15.126;2022-10-16T09:58:50;15.43;;;13.00;;
11927;SDS011;6023;47.070;15.126;2022-10-16T10:01:20;11.67;;;10.50;;
11927;SDS011;6023;47.070;15.126;2022-10-16T10:03:49;10.93;;;9.83;;
11927;SDS011;6023;47.070;15.126;2022-10-16T10:06:23;14.53;;;13.03;;
11927;SDS011;6023;47.070;15.126;2022-10-16T10:09:03;19.27;;;16.33;;
11927;SDS011;6023;47.070;15.126;2022-10-16T10:14:21;13.43;;;11.53;;
11927;SDS011;6023;47.070;15.126;2022-10-16T10:19:46;9.10;;;8.20;;
11927;SDS011;6023;47.070;15.126;2022-10-16T10:22:23;9.63;;;8.63;;
11927;SDS011;6023;47.070;15.126;2022-10-16T10:25:01;9.90;;;8.90;;
11927;SDS011;6023;47.070;15.126;2022-10-16T10:27:42;10.33;;;9.00;;
11927;SDS011;6023;47.070;15.126;2022-10-16T10:30:19;10.43;;;8.70;;
11927;SDS011;6023;47.070;15.126;2022-10-16T10:32:54;10.00;;;8.03;;
11927;SDS011;6023;47.070;15.126;2022-10-16T10:35:39;9.87;;;8.83;;
11927;SDS011;6023;47.070;15.126;2022-10-16T10:38:23;9.33;;;8.40;;
11927;SDS011;6023;47.070;15.126;2022-10-16T10:40:58;9.37;;;8.37;;
11927;SDS011;6023;47.070;15.126;2022-10-16T10:43:38;9.60;;;8.60;;
11927;SDS011;6023;47.070;15.126;2022-10-16T10:46:14;9.70;;;8.70;;
11927;SDS011;6023;47.070;15.126;2022-10-16T10:48:52;9.67;;;8.63;;
11927;SDS011;6023;47.070;15.126;2022-10-16T10:51:27;11.63;;;9.20;;
11927;SDS011;6023;47.070;15.126;2022-10-16T10:54:04;9.43;;;8.37;;
11927;SDS011;6023;47.070;15.126;2022-10-16T10:56:43;10.07;;;9.03;;
11927;SDS011;6023;47.070;15.126;2022-10-16T10:59:19;10.33;;;9.27;;
11927;SDS011;6023;47.070;15.126;2022-10-16T11:01:56;10.23;;;9.23;;
11927;SDS011;6023;47.070;15.126;2022-10-16T11:04:34;12.17;;;9.30;;
11927;SDS011;6023;47.070;15.126;2022-10-16T11:07:21;9.53;;;8.63;;
11927;SDS011;6023;47.070;15.126;2022-10-16T11:09:56;9.60;;;8.70;;
11927;SDS011;6023;47.070;15.126;2022-10-16T11:12:27;9.87;;;8.97;;
11927;SDS011;6023;47.070;15.126;2022-10-16T11:14:58;10.47;;;9.47;;
11927;SDS011;6023;47.070;15.126;2022-10-16T11:17:31;11.90;;;8.47;;
11927;SDS011;6023;47.070;15.126;2022-10-16T11:20:04;10.23;;;9.10;;
11927;SDS011;6023;47.070;15.126;2022-10-16T11:22:39;10.43;;;8.63;;
11927;SDS011;6023;47.070;15.126;2022-10-16T11:25:13;9.57;;;8.40;;
11927;SDS011;6023;47.070;15.126;2022-10-16T11:27:45;10.27;;;9.27;;
11927;SDS011;6023;47.070;15.126;2022-10-16T11:30:18;9.90;;;9.00;;
11927;SDS011;6023;47.070;15.126;2022-10-16T11:32:51;9.70;;;8.70;;
11927;SDS011;6023;47.070;15.126;2022-10-16T11:35:29;17.13;;;14.33;;
11927;SDS011;6023;47.070;15.126;2022-10-16T11:38:08;24.13;;;21.43;;
11927;SDS011;6023;47.070;15.126;2022-10-16T11:40:45;13.97;;;12.47;;
11927;SDS011;6023;47.070;15.126;2022-10-16T11:43:15;11.30;;;9.13;;
11927;SDS011;6023;47.070;15.126;2022-10-16T11:45:48;10.13;;;9.10;;
11927;SDS011;6023;47.070;15.126;2022-10-16T11:48:21;9.23;;;8.23;;
11927;SDS011;6023;47.070;15.126;2022-10-16T11:50:53;9.80;;;8.80;;
11927;SDS011;6023;47.070;15.126;2022-10-16T11:53:27;9.57;;;8.57;;
11927;SDS011;6023;47.070;15.126;2022-10-16T11:56:05;10.10;;;8.53;;
11927;SDS011;6023;47.070;15.126;2022-10-16T11:58:35;10.90;;;9.17;;
11927;SDS011;6023;47.070;15.126;2022-10-16T12:01:10;10.93;;;9.83;;
11927;SDS011;6023;47.070;15.126;2022-10-16T12:03:46;10.27;;;9.17;;
11927;SDS011;6023;47.070;15.126;2022-10-16T12:06:25;10.93;;;9.83;;
11927;SDS011;6023;47.070;15.126;2022-10-16T12:08:58;10.20;;;9.23;;
11927;SDS011;6023;47.070;15.126;2022-10-16T12:11:33;11.33;;;9.83;;
11927;SDS011;6023;47.070;15.126;2022-10-16T12:14:04;13.60;;;8.90;;
11927;SDS011;6023;47.070;15.126;2022-10-16T12:16:52;12.10;;;10.80;;
11927;SDS011;6023;47.070;15.126;2022-10-16T12:19:22;11.10;;;10.00;;
11927;SDS011;6023;47.070;15.126;2022-10-16T12:21:52;11.90;;;10.70;;
11927;SDS011;6023;47.070;15.126;2022-10-16T12:24:29;12.17;;;10.87;;
11927;SDS011;6023;47.070;15.126;2022-10-16T12:27:02;11.47;;;10.27;;
11927;SDS011;6023;47.070;15.126;2022-10-16T12:29:33;10.33;;;9.40;;
11927;SDS011;6023;47.070;15.126;2022-10-16T12:32:04;11.17;;;9.80;;
11927;SDS011;6023;47.070;15.126;2022-10-16T12:34:37;10.53;;;9.43;;
11927;SDS011;6023;47.070;15.126;2022-10-16T12:37:08;10.63;;;9.63;;
11927;SDS011;6023;47.070;15.126;2022-10-16T12:39:41;10.87;;;9.77;;
11927;SDS011;6023;47.070;15.126;2022-10-16T12:42:22;11.80;;;9.90;;
11927;SDS011;6023;47.070;15.126;2022-10-16T12:44:58;11.87;;;10.67;;
11927;SDS011;6023;47.070;15.126;2022-10-16T12:47:35;11.70;;;10.60;;
11927;SDS011;6023;47.070;15.126;2022-10-16T12:52:58;12.73;;;11.43;;
11927;SDS011;6023;47.070;15.126;2022-10-16T12:55:28;13.30;;;11.90;;
11927;SDS011;6023;47.070;15.126;2022-10-16T12:58:16;12.13;;;10.90;;
11927;SDS011;6023;47.070;15.126;2022-10-16T13:00:54;12.27;;;10.97;;
11927;SDS011;6023;47.070;15.126;2022-10-16T13:06:27;11.47;;;10.37;;
11927;SDS011;6023;47.070;15.126;2022-10-16T13:09:04;14.07;;;10.93;;
11927;SDS011;6023;47.070;15.126;2022-10-16T13:11:53;11.67;;;10.47;;
11927;SDS011;6023;47.070;15.126;2022-10-16T13:14:35;11.27;;;9.87;;
11927;SDS011;6023;47.070;15.126;2022-10-16T13:17:33;11.80;;;10.70;;
11927;SDS011;6023;47.070;15.126;2022-10-16T13:20:09;15.13;;;13.53;;
11927;SDS011;6023;47.070;15.126;2022-10-16T13:22:47;18.97;;;17.27;;
11927;SDS011;6023;47.070;15.126;2022-10-16T13:25:25;16.03;;;14.50;;
11927;SDS011;6023;47.070;15.126;2022-10-16T13:28:00;11.53;;;10.33;;
11927;SDS011;6023;47.070;15.126;2022-10-16T13:30:30;11.50;;;10.30;;
11927;SDS011;6023;47.070;15.126;2022-10-16T13:33:02;10.83;;;9.67;;
11927;SDS011;6023;47.070;15.126;2022-10-16T13:35:34;11.33;;;10.23;;
11927;SDS011;6023;47.070;15.126;2022-10-16T13:38:04;10.37;;;9.37;;
11927;SDS011;6023;47.070;15.126;2022-10-16T13:40:53;12.03;;;10.80;;
11927;SDS011;6023;47.070;15.126;2022-10-16T13:43:24;10.87;;;9.77;;
11927;SDS011;6023;47.070;15.126;2022-10-16T13:45:58;11.43;;;10.20;;
11927;SDS011;6023;47.070;15.126;2022-10-16T13:48:28;11.33;;;9.63;;
11927;SDS011;6023;47.070;15.126;2022-10-16T13:50:58;11.00;;;9.90;;
11927;SDS011;6023;47.070;15.126;2022-10-16T13:53:29;10.60;;;9.60;;
11927;SDS011;6023;47.070;15.126;2022-10-16T13:55:58;10.70;;;9.70;;
11927;SDS011;6023;47.070;15.126;2022-10-16T13:58:27;11.37;;;10.17;;
11927;SDS011;6023;47.070;15.126;2022-10-16T14:00:58;12.03;;;10.87;;
11927;SDS011;6023;47.070;15.126;2022-10-16T14:03:27;12.83;;;11.17;;
11927;SDS011;6023;47.070;15.126;2022-10-16T14:05:57;12.53;;;11.33;;
11927;SDS011;6023;47.070;15.126;2022-10-16T14:08:27;12.30;;;11.10;;
11927;SDS011;6023;47.070;15.126;2022-10-16T14:10:57;12.87;;;11.57;;
11927;SDS011;6023;47.070;15.126;2022-10-16T14:13:29;12.90;;;11.30;;
11927;SDS011;6023;47.070;15.126;2022-10-16T14:16:02;11.03;;;9.93;;
11927;SDS011;6023;47.070;15.126;2022-10-16T14:18:34;12.77;;;11.20;;
11927;SDS011;6023;47.070;15.126;2022-10-16T14:21:05;12.43;;;11.23;;
11927;SDS011;6023;47.070;15.126;2022-10-16T14:23:35;14.53;;;13.13;;
11927;SDS011;6023;47.070;15.126;2022-10-16T14:26:05;19.30;;;17.40;;
11927;SDS011;6023;47.070;15.126;2022-10-16T14:28:42;18.10;;;16.40;;
11927;SDS011;6023;47.070;15.126;2022-10-16T14:36:57;15.90;;;14.30;;
11927;SDS011;6023;47.070;15.126;2022-10-16T14:39:27;16.93;;;15.20;;
11927;SDS011;6023;47.070;15.126;2022-10-16T14:41:56;16.97;;;15.37;;
11927;SDS011;6023;47.070;15.126;2022-10-16T14:44:27;16.97;;;15.37;;
11927;SDS011;6023;47.070;15.126;2022-10-16T14:47:05;15.60;;;13.40;;
11927;SDS011;6023;47.070;15.126;2022-10-16T14:49:35;14.53;;;13.03;;
11927;SDS011;6023;47.070;15.126;2022-10-16T14:52:05;13.37;;;11.97;;
11927;SDS011;6023;47.070;15.126;2022-10-16T14:54:36;13.47;;;12.10;;
11927;SDS011;6023;47.070;15.126;2022-10-16T14:57:05;14.77;;;13.27;;
11927;SDS011;6023;47.070;15.126;2022-10-16T14:59:44;14.10;;;12.70;;
11927;SDS011;6023;47.070;15.126;2022-10-16T15:02:18;14.63;;;13.13;;
11927;SDS011;6023;47.070;15.126;2022-10-16T15:04:50;15.10;;;13.50;;
11927;SDS011;6023;47.070;15.126;2022-10-16T15:07:19;14.93;;;13.37;;
11927;SDS011;6023;47.070;15.126;2022-10-16T15:09:48;19.37;;;17.40;;
11927;SDS011;6023;47.070;15.126;2022-10-16T15:12:16;18.00;;;16.30;;